sensor_id;sensor_type;location;lat;lon;timestamp;pressure;altitude;pressure_sealevel;temperature;humidity
28004;BME280;15330;51.234;6.754;2023-01-05T00:01:07;101199.31;;;11.51;89.00
28004;BME280;15330;51.234;6.754;2023-01-05T00:03:33;101195.78;;;11.50;89.33
28004;BME280;15330;51.234;6.754;2023-01-05T00:06:02;101194.97;;;11.50;89.37
28004;BME280;15330;51.234;6.754;2023-01-05T00:08:28;101207.13;;;11.44;89.62
28004;BME280;15330;51.234;6.754;2023-01-05T00:10:53;101211.66;;;11.44;89.53
28004;BME280;15330;51.234;6.754;2023-01-05T00:13:37;101213.97;;;11.38;89.45
28004;BME280;15330;51.234;6.754;2023-01-05T00:16:21;101209.63;;;11.37;89.44
28004;BME280;15330;51.234;6.754;2023-01-05T00:19:09;101210.31;;;11.39;89.29
28004;BME280;15330;51.234;6.754;2023-01-05T00:21:53;101215.13;;;11.36;89.07
28004;BME280;15330;51.234;6.754;2023-01-05T00:24:37;101208.78;;;11.37;88.57
28004;BME280;15330;51.234;6.754;2023-01-05T00:27:02;101210.75;;;11.35;89.08
28004;BME280;15330;51.234;6.754;2023-01-05T00:29:28;101206.09;;;11.37;88.73
28004;BME280;15330;51.234;6.754;2023-01-05T00:31:53;101206.94;;;11.37;88.30
28004;BME280;15330;51.234;6.754;2023-01-05T00:34:18;101213.28;;;11.36;87.82
28004;BME280;15330;51.234;6.754;2023-01-05T00:36:44;101215.97;;;11.36;88.26
28004;BME280;15330;51.234;6.754;2023-01-05T00:39:09;101214.59;;;11.32;88.13
28004;BME280;15330;51.234;6.754;2023-01-05T00:41:34;101222.81;;;11.31;88.50
28004;BME280;15330;51.234;6.754;2023-01-05T00:44:00;101223.66;;;11.31;88.17
28004;BME280;15330;51.234;6.754;2023-01-05T00:46:25;101217.75;;;11.28;87.67
28004;BME280;15330;51.234;6.754;2023-01-05T00:48:50;101213.75;;;11.32;87.75
28004;BME280;15330;51.234;6.754;2023-01-05T00:51:16;101215.78;;;11.30;88.10
28004;BME280;15330;51.234;6.754;2023-01-05T00:53:41;101207.75;;;11.30;87.44
28004;BME280;15330;51.234;6.754;2023-01-05T00:56:06;101206.38;;;11.26;87.88
28004;BME280;15330;51.234;6.754;2023-01-05T00:58:32;101227.69;;;11.35;87.79
28004;BME280;15330;51.234;6.754;2023-01-05T01:00:57;101230.50;;;11.34;87.14
28004;BME280;15330;51.234;6.754;2023-01-05T01:03:22;101228.31;;;11.29;87.75
28004;BME280;15330;51.234;6.754;2023-01-05T01:05:57;101234.69;;;11.28;87.88
28004;BME280;15330;51.234;6.754;2023-01-05T01:08:23;101239.88;;;11.30;87.71
28004;BME280;15330;51.234;6.754;2023-01-05T01:10:48;101233.97;;;11.26;88.06
28004;BME280;15330;51.234;6.754;2023-01-05T01:13:14;101241.72;;;11.29;87.65
28004;BME280;15330;51.234;6.754;2023-01-05T01:15:39;101224.13;;;11.27;88.10
28004;BME280;15330;51.234;6.754;2023-01-05T01:18:04;101236.13;;;11.23;88.17
28004;BME280;15330;51.234;6.754;2023-01-05T01:20:30;101230.91;;;11.21;87.97
28004;BME280;15330;51.234;6.754;2023-01-05T01:22:55;101246.00;;;11.22;88.14
28004;BME280;15330;51.234;6.754;2023-01-05T01:25:21;101242.31;;;11.23;87.83
28004;BME280;15330;51.234;6.754;2023-01-05T01:27:46;101237.59;;;11.17;88.18
28004;BME280;15330;51.234;6.754;2023-01-05T01:30:12;101228.19;;;11.13;88.59
28004;BME280;15330;51.234;6.754;2023-01-05T01:32:37;101233.94;;;11.18;88.60
28004;BME280;15330;51.234;6.754;2023-01-05T01:35:03;101239.28;;;11.18;88.59
28004;BME280;15330;51.234;6.754;2023-01-05T01:37:28;101242.56;;;11.12;88.90
28004;BME280;15330;51.234;6.754;2023-01-05T01:39:54;101241.91;;;11.10;88.66
28004;BME280;15330;51.234;6.754;2023-01-05T01:42:20;101233.19;;;11.08;88.49
28004;BME280;15330;51.234;6.754;2023-01-05T01:47:33;101245.44;;;11.11;88.77
28004;BME280;15330;51.234;6.754;2023-01-05T01:50:02;101251.25;;;11.06;89.31
28004;BME280;15330;51.234;6.754;2023-01-05T01:52:29;101261.66;;;11.09;88.84
28004;BME280;15330;51.234;6.754;2023-01-05T01:54:56;101255.47;;;11.09;88.97
28004;BME280;15330;51.234;6.754;2023-01-05T01:57:25;101250.25;;;11.07;89.00
28004;BME280;15330;51.234;6.754;2023-01-05T01:59:52;101260.13;;;11.07;89.11
28004;BME280;15330;51.234;6.754;2023-01-05T02:02:20;101265.16;;;11.10;88.84
28004;BME280;15330;51.234;6.754;2023-01-05T02:04:45;101273.13;;;11.01;89.32
28004;BME280;15330;51.234;6.754;2023-01-05T02:07:14;101277.16;;;11.06;89.04
28004;BME280;15330;51.234;6.754;2023-01-05T02:09:39;101270.28;;;11.03;89.37
28004;BME280;15330;51.234;6.754;2023-01-05T02:12:06;101270.75;;;10.98;89.22
28004;BME280;15330;51.234;6.754;2023-01-05T02:31:24;101280.09;;;10.94;88.76
28004;BME280;15330;51.234;6.754;2023-01-05T02:34:01;101276.88;;;10.91;89.37
28004;BME280;15330;51.234;6.754;2023-01-05T02:39:17;101281.22;;;10.92;89.01
28004;BME280;15330;51.234;6.754;2023-01-05T02:42:00;101286.97;;;10.97;88.93
28004;BME280;15330;51.234;6.754;2023-01-05T02:44:29;101285.91;;;10.90;88.92
28004;BME280;15330;51.234;6.754;2023-01-05T02:47:00;101276.03;;;10.90;88.61
28004;BME280;15330;51.234;6.754;2023-01-05T02:49:26;101291.78;;;10.93;88.79
28004;BME280;15330;51.234;6.754;2023-01-05T02:51:54;101290.78;;;10.94;88.64
28004;BME280;15330;51.234;6.754;2023-01-05T02:54:32;101294.94;;;10.89;89.04
28004;BME280;15330;51.234;6.754;2023-01-05T02:57:36;101296.44;;;10.91;88.71
28004;BME280;15330;51.234;6.754;2023-01-05T03:00:25;101295.59;;;10.91;89.04
28004;BME280;15330;51.234;6.754;2023-01-05T03:02:55;101295.25;;;10.86;89.20
28004;BME280;15330;51.234;6.754;2023-01-05T03:05:31;101292.09;;;10.90;88.99
28004;BME280;15330;51.234;6.754;2023-01-05T03:07:59;101287.56;;;10.91;88.68
28004;BME280;15330;51.234;6.754;2023-01-05T03:10:46;101288.41;;;10.91;89.02
28004;BME280;15330;51.234;6.754;2023-01-05T03:13:36;101289.75;;;10.87;89.33
28004;BME280;15330;51.234;6.754;2023-01-05T03:16:16;101289.88;;;10.86;89.90
28004;BME280;15330;51.234;6.754;2023-01-05T03:18:43;101288.50;;;10.82;90.23
28004;BME280;15330;51.234;6.754;2023-01-05T03:21:28;101287.34;;;10.84;89.79
28004;BME280;15330;51.234;6.754;2023-01-05T03:23:55;101295.94;;;10.88;90.11
28004;BME280;15330;51.234;6.754;2023-01-05T03:26:40;101299.91;;;10.84;90.00
28004;BME280;15330;51.234;6.754;2023-01-05T03:29:26;101309.31;;;10.88;89.71
28004;BME280;15330;51.234;6.754;2023-01-05T03:32:22;101307.34;;;10.90;90.15
28004;BME280;15330;51.234;6.754;2023-01-05T03:35:16;101311.31;;;10.86;90.07
28004;BME280;15330;51.234;6.754;2023-01-05T03:40:27;101317.19;;;10.89;90.69
28004;BME280;15330;51.234;6.754;2023-01-05T03:42:54;101301.88;;;10.82;90.94
28004;BME280;15330;51.234;6.754;2023-01-05T03:45:20;101311.06;;;10.79;91.19
28004;BME280;15330;51.234;6.754;2023-01-05T03:47:47;101309.69;;;10.75;91.90
28004;BME280;15330;51.234;6.754;2023-01-05T03:50:13;101310.22;;;10.79;91.25
28004;BME280;15330;51.234;6.754;2023-01-05T03:52:39;101304.56;;;10.82;91.53
28004;BME280;15330;51.234;6.754;2023-01-05T03:55:04;101303.06;;;10.79;91.53
28004;BME280;15330;51.234;6.754;2023-01-05T03:57:30;101308.69;;;10.76;91.41
28004;BME280;15330;51.234;6.754;2023-01-05T03:59:55;101307.38;;;10.80;91.60
28004;BME280;15330;51.234;6.754;2023-01-05T04:02:20;101309.22;;;10.80;91.51
28004;BME280;15330;51.234;6.754;2023-01-05T04:04:46;101302.78;;;10.73;92.58
28004;BME280;15330;51.234;6.754;2023-01-05T04:07:11;101306.03;;;10.76;93.02
28004;BME280;15330;51.234;6.754;2023-01-05T04:09:36;101302.44;;;10.68;93.33
28004;BME280;15330;51.234;6.754;2023-01-05T04:12:02;101309.69;;;10.75;93.53
28004;BME280;15330;51.234;6.754;2023-01-05T04:14:27;101311.59;;;10.65;94.63
28004;BME280;15330;51.234;6.754;2023-01-05T04:16:52;101312.59;;;10.64;95.67
28004;BME280;15330;51.234;6.754;2023-01-05T04:19:18;101307.84;;;10.58;96.47
28004;BME280;15330;51.234;6.754;2023-01-05T04:21:43;101310.13;;;10.53;97.01
28004;BME280;15330;51.234;6.754;2023-01-05T04:24:09;101311.88;;;10.44;97.40
28004;BME280;15330;51.234;6.754;2023-01-05T04:26:35;101309.75;;;10.48;98.32
28004;BME280;15330;51.234;6.754;2023-01-05T04:29:02;101303.44;;;10.39;98.54
28004;BME280;15330;51.234;6.754;2023-01-05T04:31:28;101315.81;;;10.40;98.49
28004;BME280;15330;51.234;6.754;2023-01-05T04:33:53;101312.56;;;10.46;98.56
28004;BME280;15330;51.234;6.754;2023-01-05T04:36:18;101324.84;;;10.39;98.46
28004;BME280;15330;51.234;6.754;2023-01-05T04:38:44;101313.84;;;10.42;98.21
28004;BME280;15330;51.234;6.754;2023-01-05T04:41:09;101313.28;;;10.39;98.51
28004;BME280;15330;51.234;6.754;2023-01-05T04:43:35;101320.59;;;10.46;97.06
28004;BME280;15330;51.234;6.754;2023-01-05T04:46:00;101323.63;;;10.51;97.05
28004;BME280;15330;51.234;6.754;2023-01-05T04:48:26;101324.78;;;10.49;97.10
28004;BME280;15330;51.234;6.754;2023-01-05T04:50:52;101322.41;;;10.46;96.76
28004;BME280;15330;51.234;6.754;2023-01-05T04:53:18;101335.78;;;10.46;97.42
28004;BME280;15330;51.234;6.754;2023-01-05T04:55:44;101325.28;;;10.35;99.00
28004;BME280;15330;51.234;6.754;2023-01-05T04:58:10;101335.91;;;10.26;100.00
28004;BME280;15330;51.234;6.754;2023-01-05T05:00:35;101332.75;;;10.31;100.00
28004;BME280;15330;51.234;6.754;2023-01-05T05:03:00;101334.34;;;10.24;100.00
28004;BME280;15330;51.234;6.754;2023-01-05T05:05:26;101336.75;;;10.17;100.00
28004;BME280;15330;51.234;6.754;2023-01-05T05:07:51;101334.09;;;10.17;100.00
28004;BME280;15330;51.234;6.754;2023-01-05T05:10:17;101326.78;;;10.10;100.00
28004;BME280;15330;51.234;6.754;2023-01-05T05:12:42;101333.09;;;10.18;100.00
28004;BME280;15330;51.234;6.754;2023-01-05T05:15:08;101341.97;;;10.19;100.00
28004;BME280;15330;51.234;6.754;2023-01-05T05:17:34;101335.78;;;10.18;100.00
28004;BME280;15330;51.234;6.754;2023-01-05T05:19:59;101348.94;;;10.29;100.00
28004;BME280;15330;51.234;6.754;2023-01-05T05:22:25;101337.03;;;10.24;99.96
28004;BME280;15330;51.234;6.754;2023-01-05T05:24:52;101341.53;;;10.23;100.00
28004;BME280;15330;51.234;6.754;2023-01-05T05:27:17;101333.59;;;10.32;99.62
28004;BME280;15330;51.234;6.754;2023-01-05T05:29:42;101339.88;;;10.40;99.28
28004;BME280;15330;51.234;6.754;2023-01-05T05:32:08;101342.88;;;10.37;99.53
28004;BME280;15330;51.234;6.754;2023-01-05T05:34:33;101345.63;;;10.27;99.66
28004;BME280;15330;51.234;6.754;2023-01-05T05:36:58;101339.88;;;10.40;99.15
28004;BME280;15330;51.234;6.754;2023-01-05T05:39:24;101344.03;;;10.35;98.97
28004;BME280;15330;51.234;6.754;2023-01-05T05:41:49;101342.88;;;10.37;98.51
28004;BME280;15330;51.234;6.754;2023-01-05T05:44:15;101350.16;;;10.45;98.60
28004;BME280;15330;51.234;6.754;2023-01-05T05:46:40;101351.06;;;10.36;98.83
28004;BME280;15330;51.234;6.754;2023-01-05T05:49:05;101355.28;;;10.28;99.00
28004;BME280;15330;51.234;6.754;2023-01-05T05:51:33;101361.19;;;10.32;98.93
28004;BME280;15330;51.234;6.754;2023-01-05T05:53:58;101370.06;;;10.33;99.15
28004;BME280;15330;51.234;6.754;2023-01-05T05:56:23;101376.41;;;10.32;99.04
28004;BME280;15330;51.234;6.754;2023-01-05T05:58:49;101382.44;;;10.34;99.53
28004;BME280;15330;51.234;6.754;2023-01-05T06:01:14;101391.88;;;10.28;99.35
28004;BME280;15330;51.234;6.754;2023-01-05T06:03:39;101392.72;;;10.28;99.64
28004;BME280;15330;51.234;6.754;2023-01-05T06:06:05;101392.47;;;10.22;100.00
28004;BME280;15330;51.234;6.754;2023-01-05T06:08:31;101401.19;;;10.24;100.00
28004;BME280;15330;51.234;6.754;2023-01-05T06:10:56;101401.19;;;10.24;100.00
28004;BME280;15330;51.234;6.754;2023-01-05T06:13:22;101400.34;;;10.23;100.00
28004;BME280;15330;51.234;6.754;2023-01-05T06:15:47;101392.47;;;10.22;100.00
28004;BME280;15330;51.234;6.754;2023-01-05T06:18:13;101387.97;;;10.22;100.00
28004;BME280;15330;51.234;6.754;2023-01-05T06:20:38;101403.72;;;10.25;100.00
28004;BME280;15330;51.234;6.754;2023-01-05T06:23:04;101402.75;;;10.17;100.00
28004;BME280;15330;51.234;6.754;2023-01-05T06:25:29;101407.41;;;10.24;100.00
28004;BME280;15330;51.234;6.754;2023-01-05T06:27:55;101407.81;;;10.20;100.00
28004;BME280;15330;51.234;6.754;2023-01-05T06:30:20;101407.53;;;10.13;100.00
28004;BME280;15330;51.234;6.754;2023-01-05T06:32:46;101416.13;;;10.17;100.00
28004;BME280;15330;51.234;6.754;2023-01-05T06:35:11;101411.19;;;10.12;100.00
28004;BME280;15330;51.234;6.754;2023-01-05T06:37:36;101414.69;;;10.32;100.00
28004;BME280;15330;51.234;6.754;2023-01-05T06:40:02;101418.72;;;10.46;100.00
28004;BME280;15330;51.234;6.754;2023-01-05T06:42:27;101411.44;;;10.28;100.00
28004;BME280;15330;51.234;6.754;2023-01-05T06:44:53;101423.16;;;10.55;100.00
28004;BME280;15330;51.234;6.754;2023-01-05T06:47:18;101414.09;;;10.38;100.00
28004;BME280;15330;51.234;6.754;2023-01-05T06:49:44;101424.72;;;10.57;99.46
28004;BME280;15330;51.234;6.754;2023-01-05T06:52:09;101422.97;;;10.66;99.41
28004;BME280;15330;51.234;6.754;2023-01-05T06:54:34;101428.31;;;10.66;99.67
28004;BME280;15330;51.234;6.754;2023-01-05T06:57:00;101424.63;;;10.40;99.78
28004;BME280;15330;51.234;6.754;2023-01-05T06:59:25;101423.34;;;10.44;99.49
28004;BME280;15330;51.234;6.754;2023-01-05T07:01:50;101424.53;;;10.32;99.37
28004;BME280;15330;51.234;6.754;2023-01-05T07:04:16;101425.81;;;10.27;99.80
28004;BME280;15330;51.234;6.754;2023-01-05T07:06:41;101427.06;;;10.33;99.67
28004;BME280;15330;51.234;6.754;2023-01-05T07:09:06;101427.47;;;10.38;99.59
28004;BME280;15330;51.234;6.754;2023-01-05T07:11:32;101436.03;;;10.42;99.58
28004;BME280;15330;51.234;6.754;2023-01-05T07:13:57;101432.25;;;10.35;99.70
28004;BME280;15330;51.234;6.754;2023-01-05T07:16:23;101439.00;;;10.39;99.13
28004;BME280;15330;51.234;6.754;2023-01-05T07:18:48;101437.34;;;10.28;99.90
28004;BME280;15330;51.234;6.754;2023-01-05T07:21:13;101453.56;;;10.26;99.76
28004;BME280;15330;51.234;6.754;2023-01-05T07:23:39;101444.13;;;10.22;100.00
28004;BME280;15330;51.234;6.754;2023-01-05T07:26:06;101453.56;;;10.17;100.00
28004;BME280;15330;51.234;6.754;2023-01-05T07:28:32;101454.41;;;10.17;100.00
28004;BME280;15330;51.234;6.754;2023-01-05T07:30:57;101457.59;;;10.30;100.00
28004;BME280;15330;51.234;6.754;2023-01-05T07:33:23;101461.84;;;10.23;100.00
28004;BME280;15330;51.234;6.754;2023-01-05T07:35:48;101458.34;;;10.23;100.00
28004;BME280;15330;51.234;6.754;2023-01-05T07:38:13;101463.66;;;10.33;99.67
28004;BME280;15330;51.234;6.754;2023-01-05T07:40:39;101463.09;;;10.29;100.00
28004;BME280;15330;51.234;6.754;2023-01-05T07:43:04;101465.94;;;10.27;99.88
28004;BME280;15330;51.234;6.754;2023-01-05T07:45:30;101457.22;;;10.25;100.00
28004;BME280;15330;51.234;6.754;2023-01-05T07:47:55;101457.75;;;10.29;100.00
28004;BME280;15330;51.234;6.754;2023-01-05T07:50:21;101453.84;;;10.23;99.75
28004;BME280;15330;51.234;6.754;2023-01-05T07:52:46;101467.75;;;10.27;100.00
28004;BME280;15330;51.234;6.754;2023-01-05T07:55:12;101474.63;;;10.29;99.99
28004;BME280;15330;51.234;6.754;2023-01-05T07:57:37;101476.03;;;10.34;100.00
28004;BME280;15330;51.234;6.754;2023-01-05T08:00:04;101477.44;;;10.28;99.51
28004;BME280;15330;51.234;6.754;2023-01-05T08:02:29;101484.91;;;10.34;98.68
28004;BME280;15330;51.234;6.754;2023-01-05T08:04:55;101495.47;;;10.36;98.42
28004;BME280;15330;51.234;6.754;2023-01-05T08:07:20;101501.78;;;10.35;99.66
28004;BME280;15330;51.234;6.754;2023-01-05T08:09:46;101498.69;;;10.29;100.00
28004;BME280;15330;51.234;6.754;2023-01-05T08:12:29;101496.03;;;10.29;100.00
28004;BME280;15330;51.234;6.754;2023-01-05T08:14:55;101505.19;;;10.27;100.00
28004;BME280;15330;51.234;6.754;2023-01-05T08:17:20;101509.84;;;10.15;100.00
28004;BME280;15330;51.234;6.754;2023-01-05T08:19:46;101514.22;;;10.26;100.00
28004;BME280;15330;51.234;6.754;2023-01-05T08:22:12;101513.75;;;10.30;100.00
28004;BME280;15330;51.234;6.754;2023-01-05T08:24:37;101513.91;;;10.29;100.00
28004;BME280;15330;51.234;6.754;2023-01-05T08:27:02;101506.19;;;10.26;100.00
28004;BME280;15330;51.234;6.754;2023-01-05T08:29:28;101507.56;;;10.30;99.58
28004;BME280;15330;51.234;6.754;2023-01-05T08:31:53;101510.50;;;10.46;99.26
28004;BME280;15330;51.234;6.754;2023-01-05T08:34:19;101512.00;;;10.49;98.55
28004;BME280;15330;51.234;6.754;2023-01-05T08:36:44;101516.81;;;10.45;98.44
28004;BME280;15330;51.234;6.754;2023-01-05T08:39:11;101520.91;;;10.40;98.78
28004;BME280;15330;51.234;6.754;2023-01-05T08:41:38;101519.66;;;10.44;98.94
28004;BME280;15330;51.234;6.754;2023-01-05T08:44:06;101531.22;;;10.35;99.34
28004;BME280;15330;51.234;6.754;2023-01-05T08:46:34;101522.59;;;10.41;98.99
28004;BME280;15330;51.234;6.754;2023-01-05T08:49:03;101527.81;;;10.42;98.70
28004;BME280;15330;51.234;6.754;2023-01-05T08:51:29;101533.28;;;10.41;98.56
28004;BME280;15330;51.234;6.754;2023-01-05T08:53:55;101532.88;;;10.45;98.24
28004;BME280;15330;51.234;6.754;2023-01-05T08:56:21;101537.63;;;10.51;98.26
28004;BME280;15330;51.234;6.754;2023-01-05T08:58:49;101540.16;;;10.53;97.67
28004;BME280;15330;51.234;6.754;2023-01-05T09:01:17;101539.88;;;10.56;97.42
28004;BME280;15330;51.234;6.754;2023-01-05T09:03:43;101543.81;;;10.61;97.82
28004;BME280;15330;51.234;6.754;2023-01-05T09:06:10;101546.06;;;10.66;96.62
28004;BME280;15330;51.234;6.754;2023-01-05T09:08:37;101550.69;;;10.64;97.40
28004;BME280;15330;51.234;6.754;2023-01-05T09:11:16;101554.78;;;10.68;97.06
28004;BME280;15330;51.234;6.754;2023-01-05T09:13:50;101550.09;;;10.70;96.13
28004;BME280;15330;51.234;6.754;2023-01-05T09:16:18;101554.75;;;10.78;95.89
28004;BME280;15330;51.234;6.754;2023-01-05T09:18:45;101563.28;;;10.91;95.47
28004;BME280;15330;51.234;6.754;2023-01-05T09:21:11;101565.09;;;10.90;94.96
28004;BME280;15330;51.234;6.754;2023-01-05T09:23:37;101573.66;;;11.03;94.25
28004;BME280;15330;51.234;6.754;2023-01-05T09:26:07;101563.31;;;10.81;95.86
28004;BME280;15330;51.234;6.754;2023-01-05T09:28:33;101568.66;;;10.81;95.20
28004;BME280;15330;51.234;6.754;2023-01-05T09:31:08;101568.31;;;10.66;96.04
28004;BME280;15330;51.234;6.754;2023-01-05T09:33:34;101576.69;;;10.81;95.34
28004;BME280;15330;51.234;6.754;2023-01-05T09:36:00;101581.88;;;10.92;95.20
28004;BME280;15330;51.234;6.754;2023-01-05T09:38:26;101574.09;;;10.99;94.86
28004;BME280;15330;51.234;6.754;2023-01-05T09:40:54;101592.22;;;11.15;94.10
28004;BME280;15330;51.234;6.754;2023-01-05T09:43:27;101591.69;;;11.01;94.61
28004;BME280;15330;51.234;6.754;2023-01-05T09:45:56;101594.31;;;11.21;93.93
28004;BME280;15330;51.234;6.754;2023-01-05T09:48:22;101592.31;;;11.23;93.32
28004;BME280;15330;51.234;6.754;2023-01-05T09:50:50;101597.00;;;11.11;94.08
28004;BME280;15330;51.234;6.754;2023-01-05T09:53:27;101604.66;;;11.06;94.24
28004;BME280;15330;51.234;6.754;2023-01-05T09:55:54;101610.25;;;11.13;93.38
28004;BME280;15330;51.234;6.754;2023-01-05T09:58:23;101614.03;;;11.20;93.51
28004;BME280;15330;51.234;6.754;2023-01-05T10:01:08;101616.59;;;11.12;93.27
28004;BME280;15330;51.234;6.754;2023-01-05T10:03:38;101622.94;;;11.20;93.87
28004;BME280;15330;51.234;6.754;2023-01-05T10:06:08;101615.03;;;11.19;93.71
28004;BME280;15330;51.234;6.754;2023-01-05T10:08:44;101616.91;;;11.09;94.18
28004;BME280;15330;51.234;6.754;2023-01-05T10:11:17;101626.84;;;11.26;93.82
28004;BME280;15330;51.234;6.754;2023-01-05T10:14:11;101621.69;;;11.05;94.17
28004;BME280;15330;51.234;6.754;2023-01-05T10:16:39;101623.69;;;11.03;93.50
28004;BME280;15330;51.234;6.754;2023-01-05T10:19:12;101624.81;;;11.00;94.10
28004;BME280;15330;51.234;6.754;2023-01-05T10:29:46;101633.53;;;11.02;93.93
28004;BME280;15330;51.234;6.754;2023-01-05T10:34:59;101637.66;;;10.97;93.86
28004;BME280;15330;51.234;6.754;2023-01-05T10:40:25;101642.13;;;11.06;93.42
28004;BME280;15330;51.234;6.754;2023-01-05T10:45:27;101640.53;;;11.13;93.50
28004;BME280;15330;51.234;6.754;2023-01-05T10:47:54;101643.94;;;11.15;93.27
28004;BME280;15330;51.234;6.754;2023-01-05T10:50:39;101637.16;;;11.21;93.24
28004;BME280;15330;51.234;6.754;2023-01-05T10:53:15;101640.59;;;11.40;92.47
28004;BME280;15330;51.234;6.754;2023-01-05T10:58:26;101645.44;;;11.55;90.96
28004;BME280;15330;51.234;6.754;2023-01-05T11:00:54;101649.59;;;11.76;90.05
28004;BME280;15330;51.234;6.754;2023-01-05T11:03:26;101645.50;;;11.72;90.04
28004;BME280;15330;51.234;6.754;2023-01-05T11:05:52;101658.47;;;11.95;89.80
28004;BME280;15330;51.234;6.754;2023-01-05T11:08:25;101645.84;;;11.87;89.62
28004;BME280;15330;51.234;6.754;2023-01-05T11:13:39;101645.78;;;12.50;86.18
28004;BME280;15330;51.234;6.754;2023-01-05T11:16:09;101641.69;;;12.46;86.84
28004;BME280;15330;51.234;6.754;2023-01-05T11:18:54;101651.09;;;12.85;86.06
28004;BME280;15330;51.234;6.754;2023-01-05T11:21:26;101648.91;;;12.63;86.08
28004;BME280;15330;51.234;6.754;2023-01-05T11:23:57;101652.88;;;12.77;85.08
28004;BME280;15330;51.234;6.754;2023-01-05T11:26:39;101642.50;;;12.56;86.43
28004;BME280;15330;51.234;6.754;2023-01-05T11:29:13;101642.97;;;12.34;86.98
28004;BME280;15330;51.234;6.754;2023-01-05T11:31:59;101654.06;;;12.21;87.92
28004;BME280;15330;51.234;6.754;2023-01-05T11:34:44;101655.00;;;12.12;87.03
28004;BME280;15330;51.234;6.754;2023-01-05T11:39:46;101650.22;;;12.41;87.37
28004;BME280;15330;51.234;6.754;2023-01-05T11:48:05;101658.03;;;11.99;87.78
28004;BME280;15330;51.234;6.754;2023-01-05T11:50:47;101662.00;;;11.95;88.32
28004;BME280;15330;51.234;6.754;2023-01-05T11:53:24;101661.16;;;11.95;87.85
28004;BME280;15330;51.234;6.754;2023-01-05T11:58:45;101641.78;;;11.73;87.54
28004;BME280;15330;51.234;6.754;2023-01-05T12:03:56;101647.75;;;11.95;86.62
28004;BME280;15330;51.234;6.754;2023-01-05T12:06:57;101632.72;;;11.84;86.72
28004;BME280;15330;51.234;6.754;2023-01-05T12:09:33;101640.47;;;11.87;86.64
28004;BME280;15330;51.234;6.754;2023-01-05T12:12:22;101644.47;;;11.83;86.98
28004;BME280;15330;51.234;6.754;2023-01-05T12:20:58;101637.09;;;11.85;86.69
28004;BME280;15330;51.234;6.754;2023-01-05T12:26:15;101638.28;;;11.83;86.37
28004;BME280;15330;51.234;6.754;2023-01-05T12:31:42;101633.53;;;12.12;84.85
28004;BME280;15330;51.234;6.754;2023-01-05T12:34:36;101641.50;;;12.04;84.72
28004;BME280;15330;51.234;6.754;2023-01-05T12:45:48;101640.59;;;12.74;82.71
28004;BME280;15330;51.234;6.754;2023-01-05T12:51:13;101643.69;;;13.13;80.92
28004;BME280;15330;51.234;6.754;2023-01-05T12:59:08;101644.69;;;13.12;79.19
28004;BME280;15330;51.234;6.754;2023-01-05T13:01:41;101647.81;;;12.74;79.17
28004;BME280;15330;51.234;6.754;2023-01-05T13:06:47;101647.41;;;12.43;81.55
28004;BME280;15330;51.234;6.754;2023-01-05T13:09:19;101643.78;;;12.52;81.69
28004;BME280;15330;51.234;6.754;2023-01-05T13:11:48;101643.19;;;12.40;82.34
28004;BME280;15330;51.234;6.754;2023-01-05T13:14:18;101645.09;;;12.30;82.20
28004;BME280;15330;51.234;6.754;2023-01-05T13:16:47;101647.78;;;12.30;82.77
28004;BME280;15330;51.234;6.754;2023-01-05T13:19:24;101642.28;;;12.14;82.43
28004;BME280;15330;51.234;6.754;2023-01-05T13:21:53;101642.03;;;12.07;81.56
28004;BME280;15330;51.234;6.754;2023-01-05T13:24:49;101645.34;;;12.19;80.93
28004;BME280;15330;51.234;6.754;2023-01-05T13:27:16;101651.25;;;12.23;80.93
28004;BME280;15330;51.234;6.754;2023-01-05T13:29:48;101647.69;;;12.04;81.02
28004;BME280;15330;51.234;6.754;2023-01-05T13:32:41;101641.03;;;12.08;81.08
28004;BME280;15330;51.234;6.754;2023-01-05T13:35:17;101641.34;;;12.41;80.87
28004;BME280;15330;51.234;6.754;2023-01-05T13:38:23;101650.28;;;12.93;79.68
28004;BME280;15330;51.234;6.754;2023-01-05T13:43:59;101639.91;;;13.24;77.53
28004;BME280;15330;51.234;6.754;2023-01-05T13:46:33;101639.25;;;12.96;78.20
28004;BME280;15330;51.234;6.754;2023-01-05T13:51:52;101650.59;;;12.90;78.89
28004;BME280;15330;51.234;6.754;2023-01-05T13:54:36;101651.66;;;12.71;80.12
28004;BME280;15330;51.234;6.754;2023-01-05T13:57:12;101646.66;;;12.33;81.19
28004;BME280;15330;51.234;6.754;2023-01-05T13:59:40;101647.88;;;12.21;81.79
28004;BME280;15330;51.234;6.754;2023-01-05T14:02:25;101642.81;;;12.35;80.56
28004;BME280;15330;51.234;6.754;2023-01-05T14:04:51;101651.69;;;12.18;80.02
28004;BME280;15330;51.234;6.754;2023-01-05T14:07:17;101651.97;;;12.15;80.40
28004;BME280;15330;51.234;6.754;2023-01-05T14:09:46;101647.88;;;12.03;80.25
28004;BME280;15330;51.234;6.754;2023-01-05T14:20:42;101651.72;;;11.73;81.07
28004;BME280;15330;51.234;6.754;2023-01-05T14:33:32;101656.84;;;11.57;83.57
28004;BME280;15330;51.234;6.754;2023-01-05T14:36:02;101666.16;;;11.62;83.67
28004;BME280;15330;51.234;6.754;2023-01-05T14:38:28;101658.25;;;11.61;83.47
28004;BME280;15330;51.234;6.754;2023-01-05T14:40:54;101663.91;;;11.58;83.21
28004;BME280;15330;51.234;6.754;2023-01-05T14:48:33;101670.44;;;11.46;83.68
28004;BME280;15330;51.234;6.754;2023-01-05T14:51:19;101676.66;;;11.46;84.18
28004;BME280;15330;51.234;6.754;2023-01-05T14:53:49;101681.38;;;11.62;84.26
28004;BME280;15330;51.234;6.754;2023-01-05T14:56:18;101669.75;;;11.44;84.70
28004;BME280;15330;51.234;6.754;2023-01-05T15:01:22;101675.28;;;11.32;85.82
28004;BME280;15330;51.234;6.754;2023-01-05T15:06:54;101677.81;;;11.34;86.48